sensor_id;sensor_type;location;lat;lon;timestamp;pressure;altitude;pressure_sealevel;temperature;humidity
59073;BME280;44859;51.934;15.554;2023-04-23T00:01:30;99130.31;;;11.20;54.27
59073;BME280;44859;51.934;15.554;2023-04-23T00:04:02;99124.73;;;11.19;54.18
59073;BME280;44859;51.934;15.554;2023-04-23T00:06:36;99123.27;;;11.17;54.63
59073;BME280;44859;51.934;15.554;2023-04-23T00:09:08;99120.63;;;11.14;54.77
59073;BME280;44859;51.934;15.554;2023-04-23T00:11:38;99114.04;;;11.09;54.73
59073;BME280;44859;51.934;15.554;2023-04-23T00:14:06;99113.58;;;11.09;54.74
59073;BME280;44859;51.934;15.554;2023-04-23T00:16:35;99110.05;;;11.09;54.99
59073;BME280;44859;51.934;15.554;2023-04-23T00:19:19;99104.83;;;11.08;55.32
59073;BME280;44859;51.934;15.554;2023-04-23T00:21:50;99103.34;;;11.01;55.43
59073;BME280;44859;51.934;15.554;2023-04-23T00:24:19;99103.15;;;10.87;55.67
59073;BME280;44859;51.934;15.554;2023-04-23T00:26:53;99102.92;;;10.67;56.22
59073;BME280;44859;51.934;15.554;2023-04-23T00:29:21;99099.49;;;10.48;56.62
59073;BME280;44859;51.934;15.554;2023-04-23T00:31:50;99098.13;;;10.26;57.15
59073;BME280;44859;51.934;15.554;2023-04-23T00:34:18;99092.21;;;10.03;57.69
59073;BME280;44859;51.934;15.554;2023-04-23T00:36:47;99093.91;;;9.80;58.65
59073;BME280;44859;51.934;15.554;2023-04-23T00:39:15;99089.98;;;9.62;59.08
59073;BME280;44859;51.934;15.554;2023-04-23T00:41:43;99090.74;;;9.49;59.89
59073;BME280;44859;51.934;15.554;2023-04-23T00:44:12;99089.16;;;9.36;59.97
59073;BME280;44859;51.934;15.554;2023-04-23T00:46:41;99084.81;;;9.29;60.44
59073;BME280;44859;51.934;15.554;2023-04-23T00:49:09;99080.14;;;9.28;60.87
59073;BME280;44859;51.934;15.554;2023-04-23T00:51:38;99077.91;;;9.30;60.94
59073;BME280;44859;51.934;15.554;2023-04-23T00:54:07;99076.64;;;9.28;61.20
59073;BME280;44859;51.934;15.554;2023-04-23T00:56:35;99074.98;;;9.26;61.03
59073;BME280;44859;51.934;15.554;2023-04-23T00:59:04;99072.63;;;9.28;61.19
59073;BME280;44859;51.934;15.554;2023-04-23T01:01:33;99070.44;;;9.29;61.28
59073;BME280;44859;51.934;15.554;2023-04-23T01:04:06;99072.65;;;9.30;61.50
59073;BME280;44859;51.934;15.554;2023-04-23T01:06:37;99071.69;;;9.29;61.73
59073;BME280;44859;51.934;15.554;2023-04-23T01:09:07;99068.98;;;9.24;61.68
59073;BME280;44859;51.934;15.554;2023-04-23T01:11:41;99066.11;;;9.25;62.07
59073;BME280;44859;51.934;15.554;2023-04-23T01:14:12;99066.64;;;9.25;62.05
59073;BME280;44859;51.934;15.554;2023-04-23T01:16:41;99061.83;;;9.26;61.95
59073;BME280;44859;51.934;15.554;2023-04-23T01:19:10;99057.98;;;9.32;62.06
59073;BME280;44859;51.934;15.554;2023-04-23T01:21:38;99061.22;;;9.38;62.00
59073;BME280;44859;51.934;15.554;2023-04-23T01:24:10;99054.76;;;9.41;61.90
59073;BME280;44859;51.934;15.554;2023-04-23T01:26:41;99056.13;;;9.41;61.84
59073;BME280;44859;51.934;15.554;2023-04-23T01:29:10;99061.39;;;9.41;62.04
59073;BME280;44859;51.934;15.554;2023-04-23T01:31:39;99060.91;;;9.43;62.45
59073;BME280;44859;51.934;15.554;2023-04-23T01:34:10;99055.24;;;9.44;62.13
59073;BME280;44859;51.934;15.554;2023-04-23T01:36:43;99054.60;;;9.46;61.69
59073;BME280;44859;51.934;15.554;2023-04-23T01:39:12;99051.72;;;9.48;62.25
59073;BME280;44859;51.934;15.554;2023-04-23T01:41:40;99051.87;;;9.54;61.57
59073;BME280;44859;51.934;15.554;2023-04-23T01:44:11;99047.33;;;9.54;62.04
59073;BME280;44859;51.934;15.554;2023-04-23T01:46:41;99048.61;;;9.53;62.18
59073;BME280;44859;51.934;15.554;2023-04-23T01:49:09;99046.79;;;9.51;62.08
59073;BME280;44859;51.934;15.554;2023-04-23T01:51:38;99044.08;;;9.46;62.13
59073;BME280;44859;51.934;15.554;2023-04-23T01:54:06;99045.08;;;9.35;62.44
59073;BME280;44859;51.934;15.554;2023-04-23T01:56:34;99044.17;;;9.23;62.50
59073;BME280;44859;51.934;15.554;2023-04-23T01:59:03;99041.02;;;9.13;62.82
59073;BME280;44859;51.934;15.554;2023-04-23T02:01:45;99042.35;;;9.08;62.87
59073;BME280;44859;51.934;15.554;2023-04-23T02:04:18;99041.05;;;8.99;63.44
59073;BME280;44859;51.934;15.554;2023-04-23T02:06:50;99038.45;;;8.98;63.44
59073;BME280;44859;51.934;15.554;2023-04-23T02:09:19;99035.59;;;9.00;63.66
59073;BME280;44859;51.934;15.554;2023-04-23T02:11:48;99036.27;;;9.07;63.64
59073;BME280;44859;51.934;15.554;2023-04-23T02:14:16;99034.15;;;9.10;63.85
59073;BME280;44859;51.934;15.554;2023-04-23T02:16:45;99029.52;;;9.09;63.62
59073;BME280;44859;51.934;15.554;2023-04-23T02:19:15;99027.08;;;9.02;63.58
59073;BME280;44859;51.934;15.554;2023-04-23T02:21:43;99026.66;;;9.00;63.87
59073;BME280;44859;51.934;15.554;2023-04-23T02:24:16;99027.40;;;9.03;63.69
59073;BME280;44859;51.934;15.554;2023-04-23T02:26:44;99027.02;;;8.99;63.84
59073;BME280;44859;51.934;15.554;2023-04-23T02:29:12;99027.71;;;8.96;64.11
59073;BME280;44859;51.934;15.554;2023-04-23T02:31:44;99027.41;;;8.95;64.24
59073;BME280;44859;51.934;15.554;2023-04-23T02:34:12;99028.04;;;8.97;63.91
59073;BME280;44859;51.934;15.554;2023-04-23T02:36:42;99029.98;;;9.07;64.06
59073;BME280;44859;51.934;15.554;2023-04-23T02:39:10;99029.69;;;9.12;63.81
59073;BME280;44859;51.934;15.554;2023-04-23T02:41:40;99026.45;;;9.13;63.67
59073;BME280;44859;51.934;15.554;2023-04-23T02:44:09;99025.80;;;9.19;63.69
59073;BME280;44859;51.934;15.554;2023-04-23T02:46:40;99018.63;;;9.25;63.43
59073;BME280;44859;51.934;15.554;2023-04-23T02:49:08;99015.69;;;9.27;63.62
59073;BME280;44859;51.934;15.554;2023-04-23T02:51:37;99013.53;;;9.28;63.26
59073;BME280;44859;51.934;15.554;2023-04-23T02:54:08;99013.75;;;9.31;63.38
59073;BME280;44859;51.934;15.554;2023-04-23T02:56:59;99015.00;;;9.33;63.58
59073;BME280;44859;51.934;15.554;2023-04-23T02:59:30;99009.13;;;9.35;63.07
59073;BME280;44859;51.934;15.554;2023-04-23T03:02:02;99009.39;;;9.37;63.02
59073;BME280;44859;51.934;15.554;2023-04-23T03:04:46;99004.80;;;9.38;62.93
59073;BME280;44859;51.934;15.554;2023-04-23T03:07:14;99004.71;;;9.39;62.84
59073;BME280;44859;51.934;15.554;2023-04-23T03:10:18;98999.48;;;9.42;63.18
59073;BME280;44859;51.934;15.554;2023-04-23T03:12:52;99001.41;;;9.45;63.14
59073;BME280;44859;51.934;15.554;2023-04-23T03:15:21;99002.34;;;9.47;63.04
59073;BME280;44859;51.934;15.554;2023-04-23T03:17:53;99000.13;;;9.49;63.04
59073;BME280;44859;51.934;15.554;2023-04-23T03:20:21;98999.89;;;9.50;62.83
59073;BME280;44859;51.934;15.554;2023-04-23T03:23:05;98995.06;;;9.49;63.08
59073;BME280;44859;51.934;15.554;2023-04-23T03:25:34;98990.92;;;9.44;62.80
59073;BME280;44859;51.934;15.554;2023-04-23T03:28:02;98990.82;;;9.43;62.88
59073;BME280;44859;51.934;15.554;2023-04-23T03:30:33;98987.69;;;9.43;62.77
59073;BME280;44859;51.934;15.554;2023-04-23T03:33:06;98988.48;;;9.41;63.28
59073;BME280;44859;51.934;15.554;2023-04-23T03:35:54;98986.64;;;9.37;63.17
59073;BME280;44859;51.934;15.554;2023-04-23T03:38:36;98983.98;;;9.33;63.46
59073;BME280;44859;51.934;15.554;2023-04-23T03:41:09;98977.41;;;9.32;63.25
59073;BME280;44859;51.934;15.554;2023-04-23T03:43:42;98976.25;;;9.31;63.48
59073;BME280;44859;51.934;15.554;2023-04-23T03:46:47;98978.80;;;9.29;63.44
59073;BME280;44859;51.934;15.554;2023-04-23T03:49:18;98983.36;;;9.29;63.60
59073;BME280;44859;51.934;15.554;2023-04-23T03:51:47;98986.63;;;9.30;63.30
59073;BME280;44859;51.934;15.554;2023-04-23T03:54:22;98982.79;;;9.30;63.89
59073;BME280;44859;51.934;15.554;2023-04-23T03:56:53;98981.42;;;9.29;63.73
59073;BME280;44859;51.934;15.554;2023-04-23T03:59:22;98984.02;;;9.30;63.52
59073;BME280;44859;51.934;15.554;2023-04-23T04:01:51;98981.27;;;9.32;63.90
59073;BME280;44859;51.934;15.554;2023-04-23T04:04:19;98976.80;;;9.33;64.08
59073;BME280;44859;51.934;15.554;2023-04-23T04:06:48;98977.38;;;9.36;63.71
59073;BME280;44859;51.934;15.554;2023-04-23T04:09:19;98977.09;;;9.38;63.86
59073;BME280;44859;51.934;15.554;2023-04-23T04:11:53;98976.92;;;9.41;63.56
59073;BME280;44859;51.934;15.554;2023-04-23T04:14:32;98976.52;;;9.45;63.91
59073;BME280;44859;51.934;15.554;2023-04-23T04:17:05;98980.58;;;9.47;63.70
59073;BME280;44859;51.934;15.554;2023-04-23T04:19:42;98980.03;;;9.51;63.74
59073;BME280;44859;51.934;15.554;2023-04-23T04:22:14;98977.44;;;9.53;63.87
59073;BME280;44859;51.934;15.554;2023-04-23T04:24:56;98978.44;;;9.57;63.98
59073;BME280;44859;51.934;15.554;2023-04-23T04:27:35;98976.15;;;9.60;63.84
59073;BME280;44859;51.934;15.554;2023-04-23T04:33:15;98978.72;;;9.67;63.65
59073;BME280;44859;51.934;15.554;2023-04-23T04:35:46;98977.01;;;9.70;63.84
59073;BME280;44859;51.934;15.554;2023-04-23T04:38:37;98975.77;;;9.76;63.88
59073;BME280;44859;51.934;15.554;2023-04-23T04:41:06;98974.12;;;9.83;63.49
59073;BME280;44859;51.934;15.554;2023-04-23T04:43:53;98972.90;;;9.92;63.50
59073;BME280;44859;51.934;15.554;2023-04-23T04:46:23;98974.46;;;10.01;63.70
59073;BME280;44859;51.934;15.554;2023-04-23T04:48:56;98979.71;;;10.07;63.27
59073;BME280;44859;51.934;15.554;2023-04-23T04:51:47;98977.16;;;10.12;62.88
59073;BME280;44859;51.934;15.554;2023-04-23T04:54:15;98979.37;;;10.14;62.82
59073;BME280;44859;51.934;15.554;2023-04-23T04:56:47;98983.88;;;10.12;63.15
59073;BME280;44859;51.934;15.554;2023-04-23T04:59:36;98980.98;;;10.10;63.02
59073;BME280;44859;51.934;15.554;2023-04-23T05:02:04;98979.52;;;10.11;63.31
59073;BME280;44859;51.934;15.554;2023-04-23T05:04:41;98978.96;;;10.11;63.35
59073;BME280;44859;51.934;15.554;2023-04-23T05:07:16;98981.34;;;10.10;63.09
59073;BME280;44859;51.934;15.554;2023-04-23T05:10:06;98984.44;;;10.11;63.29
59073;BME280;44859;51.934;15.554;2023-04-23T05:13:02;98978.15;;;10.13;63.42
59073;BME280;44859;51.934;15.554;2023-04-23T05:15:39;98979.08;;;10.18;63.57
59073;BME280;44859;51.934;15.554;2023-04-23T05:18:11;98977.71;;;10.26;63.22
59073;BME280;44859;51.934;15.554;2023-04-23T05:24:07;98977.27;;;10.60;62.98
59073;BME280;44859;51.934;15.554;2023-04-23T05:26:45;98977.26;;;10.77;62.39
59073;BME280;44859;51.934;15.554;2023-04-23T05:29:24;98975.81;;;10.95;62.39
59073;BME280;44859;51.934;15.554;2023-04-23T05:32:09;98972.25;;;11.13;61.87
59073;BME280;44859;51.934;15.554;2023-04-23T05:35:01;98975.44;;;11.29;61.92
59073;BME280;44859;51.934;15.554;2023-04-23T05:37:39;98974.31;;;11.41;61.74
59073;BME280;44859;51.934;15.554;2023-04-23T05:40:22;98973.63;;;11.57;61.27
59073;BME280;44859;51.934;15.554;2023-04-23T05:42:58;98970.98;;;11.81;61.10
59073;BME280;44859;51.934;15.554;2023-04-23T05:45:59;98971.04;;;12.14;60.82
59073;BME280;44859;51.934;15.554;2023-04-23T05:48:39;98969.95;;;12.46;60.38
59073;BME280;44859;51.934;15.554;2023-04-23T05:51:36;98966.57;;;12.69;59.57
59073;BME280;44859;51.934;15.554;2023-04-23T05:54:12;98968.98;;;12.87;59.35
59073;BME280;44859;51.934;15.554;2023-04-23T05:56:48;98973.30;;;13.03;58.76
59073;BME280;44859;51.934;15.554;2023-04-23T05:59:34;98968.88;;;13.13;58.54
59073;BME280;44859;51.934;15.554;2023-04-23T06:02:07;98968.65;;;13.21;57.93
59073;BME280;44859;51.934;15.554;2023-04-23T06:04:37;98968.09;;;13.19;57.81
59073;BME280;44859;51.934;15.554;2023-04-23T06:07:19;98967.11;;;13.23;57.51
59073;BME280;44859;51.934;15.554;2023-04-23T06:10:14;98965.58;;;13.37;57.78
59073;BME280;44859;51.934;15.554;2023-04-23T06:12:45;98963.73;;;13.53;57.34
59073;BME280;44859;51.934;15.554;2023-04-23T06:15:17;98960.85;;;13.65;57.33
59073;BME280;44859;51.934;15.554;2023-04-23T06:17:52;98958.15;;;13.83;56.97
59073;BME280;44859;51.934;15.554;2023-04-23T06:20:22;98955.73;;;14.08;56.77
59073;BME280;44859;51.934;15.554;2023-04-23T06:22:50;98958.74;;;14.40;56.10
59073;BME280;44859;51.934;15.554;2023-04-23T06:25:32;98956.46;;;14.40;55.34
59073;BME280;44859;51.934;15.554;2023-04-23T06:28:00;98957.10;;;14.33;54.97
59073;BME280;44859;51.934;15.554;2023-04-23T06:30:29;98957.34;;;14.51;54.87
59073;BME280;44859;51.934;15.554;2023-04-23T06:33:01;98958.40;;;14.78;54.65
59073;BME280;44859;51.934;15.554;2023-04-23T06:35:36;98955.58;;;15.18;54.19
59073;BME280;44859;51.934;15.554;2023-04-23T06:38:06;98948.46;;;15.51;53.36
59073;BME280;44859;51.934;15.554;2023-04-23T06:40:34;98948.06;;;15.80;52.93
59073;BME280;44859;51.934;15.554;2023-04-23T06:43:14;98943.02;;;15.77;51.97
59073;BME280;44859;51.934;15.554;2023-04-23T06:45:45;98943.41;;;15.46;51.98
59073;BME280;44859;51.934;15.554;2023-04-23T06:48:34;98942.05;;;15.19;52.48
59073;BME280;44859;51.934;15.554;2023-04-23T06:51:04;98939.85;;;14.98;52.98
59073;BME280;44859;51.934;15.554;2023-04-23T06:53:36;98936.41;;;14.90;53.40
59073;BME280;44859;51.934;15.554;2023-04-23T06:56:14;98934.27;;;14.98;53.61
59073;BME280;44859;51.934;15.554;2023-04-23T06:58:45;98933.08;;;15.05;53.48
59073;BME280;44859;51.934;15.554;2023-04-23T07:01:16;98927.30;;;15.03;53.49
59073;BME280;44859;51.934;15.554;2023-04-23T07:03:46;98921.49;;;15.14;53.54
59073;BME280;44859;51.934;15.554;2023-04-23T07:06:19;98921.64;;;15.22;53.28
59073;BME280;44859;51.934;15.554;2023-04-23T07:08:48;98924.23;;;15.34;53.87
59073;BME280;44859;51.934;15.554;2023-04-23T07:11:17;98926.38;;;15.66;53.27
59073;BME280;44859;51.934;15.554;2023-04-23T07:13:48;98918.45;;;16.06;53.20
59073;BME280;44859;51.934;15.554;2023-04-23T07:16:17;98916.18;;;16.34;52.15
59073;BME280;44859;51.934;15.554;2023-04-23T07:18:51;98914.46;;;16.31;51.78
59073;BME280;44859;51.934;15.554;2023-04-23T07:21:22;98914.76;;;16.22;51.89
59073;BME280;44859;51.934;15.554;2023-04-23T07:24:01;98912.67;;;16.24;52.13
59073;BME280;44859;51.934;15.554;2023-04-23T07:26:35;98914.21;;;16.25;51.89
59073;BME280;44859;51.934;15.554;2023-04-23T07:29:04;98927.02;;;16.17;51.88
59073;BME280;44859;51.934;15.554;2023-04-23T07:31:40;98923.19;;;16.31;52.02
59073;BME280;44859;51.934;15.554;2023-04-23T07:34:20;98919.23;;;16.50;51.86
59073;BME280;44859;51.934;15.554;2023-04-23T07:36:49;98916.63;;;16.70;51.71
59073;BME280;44859;51.934;15.554;2023-04-23T07:39:28;98910.33;;;16.87;51.42
59073;BME280;44859;51.934;15.554;2023-04-23T07:42:01;98911.12;;;17.18;50.85
59073;BME280;44859;51.934;15.554;2023-04-23T07:44:40;98910.47;;;17.38;50.90
59073;BME280;44859;51.934;15.554;2023-04-23T07:47:10;98908.20;;;17.29;50.89
59073;BME280;44859;51.934;15.554;2023-04-23T07:49:40;98905.23;;;17.11;50.78
59073;BME280;44859;51.934;15.554;2023-04-23T07:52:09;98907.80;;;16.92;51.10
59073;BME280;44859;51.934;15.554;2023-04-23T07:54:37;98906.31;;;16.87;51.66
59073;BME280;44859;51.934;15.554;2023-04-23T07:57:08;98900.00;;;16.78;51.52
59073;BME280;44859;51.934;15.554;2023-04-23T07:59:40;98905.15;;;16.78;51.89
59073;BME280;44859;51.934;15.554;2023-04-23T08:02:30;98906.52;;;17.04;51.78
59073;BME280;44859;51.934;15.554;2023-04-23T08:05:15;98902.37;;;17.19;51.98
59073;BME280;44859;51.934;15.554;2023-04-23T08:08:13;98892.42;;;17.15;51.73
59073;BME280;44859;51.934;15.554;2023-04-23T08:10:42;98890.59;;;17.14;51.89
59073;BME280;44859;51.934;15.554;2023-04-23T08:13:10;98890.42;;;17.10;52.28
59073;BME280;44859;51.934;15.554;2023-04-23T08:15:44;98901.49;;;16.97;52.25
59073;BME280;44859;51.934;15.554;2023-04-23T08:18:15;98910.39;;;16.80;52.41
59073;BME280;44859;51.934;15.554;2023-04-23T08:20:52;98904.68;;;16.73;52.49
59073;BME280;44859;51.934;15.554;2023-04-23T08:23:25;98909.17;;;16.58;53.22
59073;BME280;44859;51.934;15.554;2023-04-23T08:26:02;98909.02;;;16.54;53.37
59073;BME280;44859;51.934;15.554;2023-04-23T08:28:37;98910.18;;;16.52;53.68
59073;BME280;44859;51.934;15.554;2023-04-23T08:31:05;98910.16;;;16.61;53.20
59073;BME280;44859;51.934;15.554;2023-04-23T08:33:53;98903.84;;;16.70;53.37
59073;BME280;44859;51.934;15.554;2023-04-23T08:36:48;98901.98;;;16.92;53.07
59073;BME280;44859;51.934;15.554;2023-04-23T08:39:19;98902.13;;;17.04;52.60
59073;BME280;44859;51.934;15.554;2023-04-23T08:41:54;98897.48;;;17.12;52.23
59073;BME280;44859;51.934;15.554;2023-04-23T08:44:27;98897.75;;;17.21;51.88
59073;BME280;44859;51.934;15.554;2023-04-23T08:47:03;98901.15;;;17.27;51.68
59073;BME280;44859;51.934;15.554;2023-04-23T08:49:34;98899.48;;;17.30;51.33
59073;BME280;44859;51.934;15.554;2023-04-23T08:52:15;98900.35;;;17.28;51.59
59073;BME280;44859;51.934;15.554;2023-04-23T08:54:54;98903.36;;;17.30;51.48
59073;BME280;44859;51.934;15.554;2023-04-23T08:57:38;98904.23;;;17.24;51.57
59073;BME280;44859;51.934;15.554;2023-04-23T09:00:18;98905.25;;;17.22;51.75
59073;BME280;44859;51.934;15.554;2023-04-23T09:02:57;98907.66;;;17.23;51.73
59073;BME280;44859;51.934;15.554;2023-04-23T09:05:26;98904.50;;;17.29;51.68
59073;BME280;44859;51.934;15.554;2023-04-23T09:07:57;98901.54;;;17.32;51.43
59073;BME280;44859;51.934;15.554;2023-04-23T09:10:31;98894.02;;;17.41;51.44
59073;BME280;44859;51.934;15.554;2023-04-23T09:13:12;98888.64;;;17.51;51.80
59073;BME280;44859;51.934;15.554;2023-04-23T09:15:41;98892.24;;;17.58;51.93
59073;BME280;44859;51.934;15.554;2023-04-23T09:18:13;98892.32;;;17.69;51.62
59073;BME280;44859;51.934;15.554;2023-04-23T09:20:49;98892.42;;;17.74;51.47
59073;BME280;44859;51.934;15.554;2023-04-23T09:23:20;98894.90;;;17.72;51.60
59073;BME280;44859;51.934;15.554;2023-04-23T09:25:53;98904.77;;;17.76;51.33
59073;BME280;44859;51.934;15.554;2023-04-23T09:28:36;98905.45;;;17.66;51.41
59073;BME280;44859;51.934;15.554;2023-04-23T09:31:05;98907.72;;;17.64;51.90
59073;BME280;44859;51.934;15.554;2023-04-23T09:33:39;98906.53;;;17.65;51.75
59073;BME280;44859;51.934;15.554;2023-04-23T09:36:13;98908.05;;;17.62;51.94
59073;BME280;44859;51.934;15.554;2023-04-23T09:38:42;98902.98;;;17.69;51.90
59073;BME280;44859;51.934;15.554;2023-04-23T09:41:25;98898.84;;;17.81;51.90
59073;BME280;44859;51.934;15.554;2023-04-23T09:44:18;98901.14;;;18.05;51.64
59073;BME280;44859;51.934;15.554;2023-04-23T09:46:48;98900.09;;;18.25;51.74
59073;BME280;44859;51.934;15.554;2023-04-23T09:49:16;98900.07;;;18.40;51.38
59073;BME280;44859;51.934;15.554;2023-04-23T09:51:47;98903.68;;;18.49;51.40
59073;BME280;44859;51.934;15.554;2023-04-23T09:54:25;98895.08;;;18.46;50.84
59073;BME280;44859;51.934;15.554;2023-04-23T09:56:54;98891.88;;;18.41;51.04
59073;BME280;44859;51.934;15.554;2023-04-23T09:59:31;98890.90;;;18.43;51.38
59073;BME280;44859;51.934;15.554;2023-04-23T10:02:15;98882.02;;;18.48;51.41
59073;BME280;44859;51.934;15.554;2023-04-23T10:04:50;98881.30;;;18.54;51.39
59073;BME280;44859;51.934;15.554;2023-04-23T10:07:31;98877.07;;;18.59;51.46
59073;BME280;44859;51.934;15.554;2023-04-23T10:10:10;98875.71;;;18.77;51.30
59073;BME280;44859;51.934;15.554;2023-04-23T10:12:42;98879.52;;;18.82;50.53
59073;BME280;44859;51.934;15.554;2023-04-23T10:15:24;98879.79;;;18.91;49.34
59073;BME280;44859;51.934;15.554;2023-04-23T10:17:54;98876.59;;;18.85;49.10
59073;BME280;44859;51.934;15.554;2023-04-23T10:20:24;98880.20;;;18.88;49.69
59073;BME280;44859;51.934;15.554;2023-04-23T10:22:54;98883.41;;;18.84;49.03
59073;BME280;44859;51.934;15.554;2023-04-23T10:25:24;98882.19;;;18.67;49.29
59073;BME280;44859;51.934;15.554;2023-04-23T10:28:05;98883.63;;;18.51;49.74
59073;BME280;44859;51.934;15.554;2023-04-23T10:30:36;98888.15;;;18.44;50.96
59073;BME280;44859;51.934;15.554;2023-04-23T10:33:09;98890.63;;;18.37;51.00
59073;BME280;44859;51.934;15.554;2023-04-23T10:35:58;98890.09;;;18.18;51.23
59073;BME280;44859;51.934;15.554;2023-04-23T10:38:29;98894.55;;;18.10;51.77
59073;BME280;44859;51.934;15.554;2023-04-23T10:41:00;98890.29;;;18.03;51.75
59073;BME280;44859;51.934;15.554;2023-04-23T10:43:32;98886.55;;;18.05;52.45
59073;BME280;44859;51.934;15.554;2023-04-23T10:46:01;98888.27;;;18.07;52.27
59073;BME280;44859;51.934;15.554;2023-04-23T10:49:09;98891.53;;;18.22;52.52
59073;BME280;44859;51.934;15.554;2023-04-23T10:51:44;98896.83;;;18.54;52.54
59073;BME280;44859;51.934;15.554;2023-04-23T10:54:34;98892.39;;;18.73;52.35
59073;BME280;44859;51.934;15.554;2023-04-23T10:57:05;98893.10;;;18.71;51.82
59073;BME280;44859;51.934;15.554;2023-04-23T10:59:38;98896.99;;;18.69;52.30
59073;BME280;44859;51.934;15.554;2023-04-23T11:02:14;98897.00;;;18.61;51.83
59073;BME280;44859;51.934;15.554;2023-04-23T11:07:36;98894.16;;;18.30;51.65
59073;BME280;44859;51.934;15.554;2023-04-23T11:10:13;98897.98;;;18.11;52.17
59073;BME280;44859;51.934;15.554;2023-04-23T11:12:43;98897.95;;;18.03;52.52
59073;BME280;44859;51.934;15.554;2023-04-23T11:15:13;98901.59;;;17.94;53.39
59073;BME280;44859;51.934;15.554;2023-04-23T11:20:22;98906.95;;;17.70;53.59
59073;BME280;44859;51.934;15.554;2023-04-23T11:22:51;98911.36;;;17.59;53.68
59073;BME280;44859;51.934;15.554;2023-04-23T11:25:26;98914.17;;;17.47;53.85
59073;BME280;44859;51.934;15.554;2023-04-23T11:27:57;98913.22;;;17.40;54.07
59073;BME280;44859;51.934;15.554;2023-04-23T11:30:28;98913.63;;;17.40;54.66
59073;BME280;44859;51.934;15.554;2023-04-23T11:33:07;98917.39;;;17.37;54.76
59073;BME280;44859;51.934;15.554;2023-04-23T11:35:39;98912.68;;;17.34;55.38
59073;BME280;44859;51.934;15.554;2023-04-23T11:38:09;98915.79;;;17.41;55.46
59073;BME280;44859;51.934;15.554;2023-04-23T11:40:46;98914.50;;;17.63;55.58
59073;BME280;44859;51.934;15.554;2023-04-23T11:43:21;98910.59;;;17.87;55.24
59073;BME280;44859;51.934;15.554;2023-04-23T11:45:49;98914.22;;;18.13;55.04
59073;BME280;44859;51.934;15.554;2023-04-23T11:48:25;98914.95;;;18.29;54.78
59073;BME280;44859;51.934;15.554;2023-04-23T11:50:53;98915.65;;;18.33;54.59
59073;BME280;44859;51.934;15.554;2023-04-23T11:53:23;98916.77;;;18.23;54.78
59073;BME280;44859;51.934;15.554;2023-04-23T11:55:52;98917.59;;;18.07;54.66
59073;BME280;44859;51.934;15.554;2023-04-23T11:58:21;98917.75;;;17.96;54.84
59073;BME280;44859;51.934;15.554;2023-04-23T12:00:56;98917.97;;;17.91;54.86
59073;BME280;44859;51.934;15.554;2023-04-23T12:03:27;98914.48;;;17.97;54.85
59073;BME280;44859;51.934;15.554;2023-04-23T12:05:59;98915.64;;;18.07;54.88
59073;BME280;44859;51.934;15.554;2023-04-23T12:08:37;98917.49;;;18.16;54.29
59073;BME280;44859;51.934;15.554;2023-04-23T12:11:10;98917.45;;;18.09;54.40
59073;BME280;44859;51.934;15.554;2023-04-23T12:13:49;98917.76;;;18.00;54.50
59073;BME280;44859;51.934;15.554;2023-04-23T12:16:36;98917.56;;;17.92;54.71
59073;BME280;44859;51.934;15.554;2023-04-23T12:19:16;98916.80;;;17.83;54.80
59073;BME280;44859;51.934;15.554;2023-04-23T12:21:51;98924.80;;;17.71;55.30
59073;BME280;44859;51.934;15.554;2023-04-23T12:24:24;98926.09;;;17.59;55.56
59073;BME280;44859;51.934;15.554;2023-04-23T12:27:03;98928.62;;;17.50;55.83
59073;BME280;44859;51.934;15.554;2023-04-23T12:29:44;98928.06;;;17.43;56.28
59073;BME280;44859;51.934;15.554;2023-04-23T12:32:15;98929.64;;;17.43;56.06
59073;BME280;44859;51.934;15.554;2023-04-23T12:34:55;98931.62;;;17.49;56.44
59073;BME280;44859;51.934;15.554;2023-04-23T12:37:29;98928.98;;;17.52;56.51
59073;BME280;44859;51.934;15.554;2023-04-23T12:39:59;98926.23;;;17.49;56.63
59073;BME280;44859;51.934;15.554;2023-04-23T12:42:32;98925.02;;;17.40;56.57
59073;BME280;44859;51.934;15.554;2023-04-23T12:45:22;98921.55;;;17.37;57.42
59073;BME280;44859;51.934;15.554;2023-04-23T12:48:00;98920.95;;;17.47;57.27
59073;BME280;44859;51.934;15.554;2023-04-23T12:50:29;98920.80;;;17.58;56.59
59073;BME280;44859;51.934;15.554;2023-04-23T12:56:53;98922.23;;;17.60;56.76
59073;BME280;44859;51.934;15.554;2023-04-23T12:59:54;98921.17;;;17.64;56.83
59073;BME280;44859;51.934;15.554;2023-04-23T13:02:24;98924.49;;;17.71;56.72
59073;BME280;44859;51.934;15.554;2023-04-23T13:05:09;98920.98;;;17.76;56.69
59073;BME280;44859;51.934;15.554;2023-04-23T13:07:40;98917.84;;;17.85;56.34
59073;BME280;44859;51.934;15.554;2023-04-23T13:10:12;98920.98;;;17.86;55.99
59073;BME280;44859;51.934;15.554;2023-04-23T13:12:50;98912.63;;;17.82;55.98
59073;BME280;44859;51.934;15.554;2023-04-23T13:15:21;98913.02;;;17.79;56.03
59073;BME280;44859;51.934;15.554;2023-04-23T13:18:05;98909.96;;;17.78;55.71
59073;BME280;44859;51.934;15.554;2023-04-23T13:20:34;98908.83;;;17.85;55.97
59073;BME280;44859;51.934;15.554;2023-04-23T13:23:06;98912.52;;;17.93;55.94
59073;BME280;44859;51.934;15.554;2023-04-23T13:25:37;98910.34;;;17.93;55.98
59073;BME280;44859;51.934;15.554;2023-04-23T13:28:06;98909.39;;;17.86;55.83
59073;BME280;44859;51.934;15.554;2023-04-23T13:30:35;98905.70;;;17.86;56.08
59073;BME280;44859;51.934;15.554;2023-04-23T13:33:03;98903.51;;;17.83;55.99
59073;BME280;44859;51.934;15.554;2023-04-23T13:35:32;98903.98;;;17.75;56.23
59073;BME280;44859;51.934;15.554;2023-04-23T13:38:04;98907.22;;;17.73;56.29
59073;BME280;44859;51.934;15.554;2023-04-23T13:40:33;98910.45;;;17.72;56.49
59073;BME280;44859;51.934;15.554;2023-04-23T13:43:05;98909.42;;;17.67;56.46
59073;BME280;44859;51.934;15.554;2023-04-23T13:45:33;98909.96;;;17.60;56.41